createdAt,value
2023-03-13T00:01:51.007Z,0.00
2023-03-13T00:06:52.268Z,0.00
2023-03-13T00:11:53.801Z,0.00
2023-03-13T00:16:53.154Z,0.00
2023-03-13T00:21:54.411Z,0.00
2023-03-13T00:26:55.636Z,0.00
2023-03-13T00:31:56.909Z,0.00
2023-03-13T00:36:58.149Z,0.00
2023-03-13T00:41:59.382Z,0.00
2023-03-13T00:47:00.573Z,0.00
2023-03-13T00:52:01.773Z,0.00
2023-03-13T00:57:03.009Z,0.00
2023-03-13T01:02:04.299Z,0.00
2023-03-13T01:07:05.645Z,0.00
2023-03-13T01:12:06.942Z,0.00
2023-03-13T01:17:08.078Z,0.00
2023-03-13T01:22:09.292Z,0.00
2023-03-13T01:27:11.714Z,0.00
2023-03-13T01:32:10.916Z,0.00
2023-03-13T01:37:12.083Z,0.00
2023-03-13T01:42:13.600Z,0.00
2023-03-13T01:47:11.780Z,0.00
2023-03-13T01:52:13.031Z,0.00
2023-03-13T01:57:14.296Z,0.00
2023-03-13T02:02:15.523Z,0.00
2023-03-13T02:07:16.693Z,0.00
2023-03-13T02:12:17.853Z,0.00
2023-03-13T02:17:19.007Z,0.00
2023-03-13T02:22:20.220Z,0.00
2023-03-13T02:27:21.355Z,0.00
2023-03-13T02:32:23.773Z,0.00
2023-03-13T02:37:23.041Z,0.00
2023-03-13T02:42:24.240Z,0.00
2023-03-13T02:47:25.391Z,0.00
2023-03-13T02:52:26.656Z,0.00
2023-03-13T02:57:27.862Z,0.00
2023-03-13T03:02:29.072Z,0.00
2023-03-13T03:07:30.271Z,0.00
2023-03-13T03:12:31.504Z,0.00
2023-03-13T03:17:32.665Z,0.00
2023-03-13T03:22:33.899Z,0.00
2023-03-13T03:27:35.168Z,0.00
2023-03-13T03:32:36.385Z,0.00
2023-03-13T03:37:37.000Z,0.00
2023-03-13T03:42:38.161Z,0.00
2023-03-13T03:47:39.363Z,0.00
2023-03-13T03:52:40.697Z,0.00
2023-03-13T03:57:41.862Z,0.00
2023-03-13T04:02:44.108Z,0.00
2023-03-13T04:07:43.319Z,0.00
2023-03-13T04:12:44.515Z,0.00
2023-03-13T04:17:45.840Z,0.00
2023-03-13T04:22:47.031Z,0.00
2023-03-13T04:27:49.291Z,0.00
2023-03-13T04:32:48.576Z,0.00
2023-03-13T04:37:49.781Z,0.00
2023-03-13T04:42:50.936Z,0.00
2023-03-13T04:47:52.164Z,0.00
2023-03-13T04:52:53.385Z,0.00
2023-03-13T04:57:54.620Z,0.00
2023-03-13T05:02:55.768Z,0.00
2023-03-13T05:07:57.938Z,0.00
2023-03-13T05:12:58.163Z,0.00
2023-03-13T05:17:57.412Z,0.00
2023-03-13T05:22:58.585Z,0.00
2023-03-13T05:27:59.831Z,0.00
2023-03-13T05:33:01.094Z,0.00
2023-03-13T05:38:02.356Z,0.00
2023-03-13T05:43:03.567Z,0.00
2023-03-13T05:48:05.792Z,0.00
2023-03-13T05:53:05.019Z,0.00
2023-03-13T05:58:06.258Z,0.00
2023-03-13T06:03:07.497Z,5.62
2023-03-13T06:08:08.726Z,11.25
2023-03-13T06:13:19.293Z,11.25
2023-03-13T06:18:11.004Z,16.88
2023-03-13T06:23:12.207Z,22.50
2023-03-13T06:28:13.431Z,28.12
2023-03-13T06:33:14.711Z,22.50
2023-03-13T06:38:16.028Z,22.50
2023-03-13T06:43:17.593Z,28.12
2023-03-13T06:48:16.755Z,28.12
2023-03-13T06:53:17.978Z,50.62
2023-03-13T06:58:31.453Z,56.25
2023-03-13T07:03:19.213Z,56.25
2023-03-13T07:08:20.383Z,56.25
2023-03-13T07:13:21.561Z,56.25
2023-03-13T07:18:22.771Z,78.75
2023-03-13T07:23:24.012Z,90.00
2023-03-13T07:28:25.280Z,90.00
2023-03-13T07:33:26.456Z,90.00
2023-03-13T07:38:25.948Z,112.50
2023-03-13T07:43:27.202Z,123.75
2023-03-13T07:48:28.392Z,106.88
2023-03-13T07:53:29.620Z,123.75
2023-03-13T07:58:30.903Z,163.12
2023-03-13T08:03:32.228Z,286.88
2023-03-13T08:08:33.516Z,331.88
2023-03-13T08:13:34.779Z,331.88
2023-03-13T08:18:36.934Z,286.88
2023-03-13T08:23:36.152Z,241.88
2023-03-13T08:28:37.290Z,236.25
2023-03-13T08:33:38.440Z,258.75
2023-03-13T08:38:39.689Z,298.12
2023-03-13T08:43:40.856Z,382.50
2023-03-13T08:48:43.033Z,438.75
2023-03-13T08:53:43.145Z,365.62
2023-03-13T08:58:42.311Z,382.50
2023-03-13T09:03:43.501Z,427.50
2023-03-13T09:08:43.729Z,438.75
2023-03-13T09:13:45.828Z,466.88
2023-03-13T09:18:46.000Z,466.88
2023-03-13T09:23:47.110Z,433.12
2023-03-13T09:28:46.271Z,410.62
2023-03-13T09:33:47.406Z,382.50
2023-03-13T09:38:48.557Z,376.88
2023-03-13T09:43:49.706Z,410.62
2023-03-13T09:48:50.847Z,388.12
2023-03-13T09:53:53.032Z,388.12
2023-03-13T09:58:52.188Z,382.50
2023-03-13T10:03:53.327Z,376.88
2023-03-13T10:08:53.541Z,365.62
2023-03-13T10:13:54.694Z,371.25
2023-03-13T10:18:56.832Z,393.75
2023-03-13T10:23:56.984Z,410.62
2023-03-13T10:28:57.103Z,416.25
2023-03-13T10:33:56.246Z,433.12
2023-03-13T10:38:57.423Z,399.38
2023-03-13T10:43:58.572Z,427.50
2023-03-13T10:48:59.738Z,410.62
2023-03-13T10:54:00.916Z,421.88
2023-03-13T10:59:02.072Z,466.88
2023-03-13T11:04:03.260Z,444.38
2023-03-13T11:09:04.435Z,472.50
2023-03-13T11:14:07.581Z,466.88
2023-03-13T11:19:07.734Z,489.38
2023-03-13T11:24:06.867Z,483.75
2023-03-13T11:29:08.973Z,466.88
2023-03-13T11:34:08.174Z,416.25
2023-03-13T11:39:09.289Z,410.62
2023-03-13T11:44:11.554Z,399.38
2023-03-13T11:49:11.677Z,399.38
2023-03-13T11:54:10.792Z,410.62
2023-03-13T11:59:11.905Z,421.88
2023-03-13T12:04:13.045Z,421.88
2023-03-13T12:09:16.164Z,410.62
2023-03-13T12:14:15.279Z,399.38
2023-03-13T12:19:16.427Z,405.00
2023-03-13T12:24:17.538Z,399.38
2023-03-13T12:29:18.666Z,405.00
2023-03-13T12:34:19.827Z,410.62
2023-03-13T12:39:20.924Z,382.50
2023-03-13T12:44:23.182Z,416.25
2023-03-13T12:49:23.306Z,399.38
2023-03-13T12:54:23.431Z,393.75
2023-03-13T12:59:23.578Z,399.38
2023-03-13T13:04:23.841Z,393.75
2023-03-13T13:09:23.010Z,399.38
2023-03-13T13:14:25.105Z,393.75
2023-03-13T13:19:24.318Z,388.12
2023-03-13T13:24:25.508Z,365.62
2023-03-13T13:29:27.737Z,410.62
2023-03-13T13:34:27.873Z,393.75
2023-03-13T13:39:28.010Z,376.88
2023-03-13T13:44:28.146Z,365.62
2023-03-13T13:49:27.283Z,360.00
2023-03-13T13:54:28.388Z,393.75
2023-03-13T13:59:29.535Z,405.00
2023-03-13T14:04:30.670Z,393.75
2023-03-13T14:09:31.791Z,405.00
2023-03-13T14:14:33.913Z,399.38
2023-03-13T14:19:33.031Z,348.75
2023-03-13T14:24:34.202Z,421.88
2023-03-13T14:29:35.360Z,399.38
2023-03-13T14:34:36.521Z,444.38
2023-03-13T14:39:37.796Z,433.12
2023-03-13T14:44:38.962Z,433.12
2023-03-13T14:49:40.109Z,438.75
2023-03-13T14:54:41.278Z,399.38
2023-03-13T14:59:42.421Z,253.12
2023-03-13T15:04:43.908Z,303.75
2023-03-13T15:09:43.043Z,348.75
2023-03-13T15:14:44.171Z,348.75
2023-03-13T15:19:46.318Z,326.25
2023-03-13T15:24:59.639Z,309.38
2023-03-13T15:29:45.699Z,303.75
2023-03-13T15:34:48.796Z,298.12
2023-03-13T15:39:47.926Z,219.38
2023-03-13T15:44:49.042Z,185.62
2023-03-13T15:49:51.223Z,185.62
2023-03-13T15:54:50.376Z,168.75
2023-03-13T15:59:51.548Z,157.50
2023-03-13T16:04:53.720Z,140.62
2023-03-13T16:09:52.860Z,118.12
2023-03-13T16:14:54.034Z,118.12
2023-03-13T16:19:56.147Z,118.12
2023-03-13T16:24:56.273Z,129.38
2023-03-13T16:29:56.387Z,129.38
2023-03-13T16:34:55.569Z,118.12
2023-03-13T16:39:56.737Z,106.88
2023-03-13T16:44:57.886Z,101.25
2023-03-13T16:49:59.056Z,95.62
2023-03-13T16:55:01.191Z,67.50
2023-03-13T17:00:01.571Z,45.00
2023-03-13T17:05:00.794Z,33.75
2023-03-13T17:10:02.998Z,28.12
2023-03-13T17:15:02.254Z,22.50
2023-03-13T17:20:04.334Z,11.25
2023-03-13T17:25:03.638Z,5.62
2023-03-13T17:30:04.840Z,0.00
2023-03-13T17:35:06.374Z,0.00
2023-03-13T17:40:04.697Z,0.00
2023-03-13T17:45:07.097Z,0.00
2023-03-13T17:50:08.356Z,0.00
2023-03-13T17:55:07.861Z,0.00
2023-03-13T18:00:07.250Z,0.00
2023-03-13T18:05:08.415Z,0.00
2023-03-13T18:10:09.698Z,0.00
2023-03-13T18:15:11.016Z,0.00
2023-03-13T18:20:12.473Z,0.00
2023-03-13T18:25:12.096Z,0.00
2023-03-13T18:30:11.534Z,0.00
2023-03-13T18:35:12.004Z,0.00
2023-03-13T18:40:11.560Z,0.00
2023-03-13T18:45:09.748Z,0.00
2023-03-13T18:50:13.159Z,0.00
2023-03-13T18:55:11.615Z,0.00
2023-03-13T19:00:11.230Z,0.00
2023-03-13T19:05:11.430Z,0.00
2023-03-13T19:10:10.939Z,0.00
2023-03-13T19:15:10.580Z,0.00
2023-03-13T19:20:10.018Z,0.00
2023-03-13T19:25:11.573Z,0.00
2023-03-13T19:30:12.135Z,0.00
2023-03-13T19:35:11.739Z,0.00
2023-03-13T19:40:12.147Z,0.00
2023-03-13T19:45:12.417Z,0.00
2023-03-13T19:50:11.514Z,0.00
2023-03-13T19:55:12.971Z,0.00
2023-03-13T20:00:13.424Z,0.00
2023-03-13T20:05:12.957Z,0.00
2023-03-13T20:10:12.464Z,0.00
2023-03-13T20:15:11.908Z,0.00
2023-03-13T20:20:13.538Z,0.00
2023-03-13T20:25:13.938Z,0.00
2023-03-13T20:30:16.044Z,0.00
2023-03-13T20:35:13.593Z,0.00
2023-03-13T20:40:14.371Z,0.00
2023-03-13T20:45:14.568Z,0.00
2023-03-13T20:50:16.992Z,0.00
2023-03-13T20:55:13.530Z,0.00
2023-03-13T21:00:14.043Z,0.00
2023-03-13T21:05:13.551Z,0.00
2023-03-13T21:10:12.855Z,0.00
2023-03-13T21:15:14.177Z,0.00
2023-03-13T21:20:15.599Z,0.00
2023-03-13T21:25:15.096Z,0.00
2023-03-13T21:30:14.630Z,0.00
2023-03-13T21:35:12.852Z,0.00
2023-03-13T21:40:13.987Z,0.00
2023-03-13T21:45:15.178Z,0.00
2023-03-13T21:50:16.343Z,0.00
2023-03-13T21:55:18.458Z,0.00
2023-03-13T22:00:17.643Z,0.00
2023-03-13T22:05:19.735Z,0.00
2023-03-13T22:10:20.847Z,0.00
2023-03-13T22:15:20.003Z,0.00
2023-03-13T22:20:22.094Z,0.00
2023-03-13T22:25:21.236Z,0.00
2023-03-13T22:30:22.423Z,0.00
2023-03-13T22:35:24.565Z,0.00
2023-03-13T22:40:23.660Z,0.00
2023-03-13T22:45:24.926Z,0.00
2023-03-13T22:50:26.255Z,0.00
2023-03-13T22:55:27.448Z,0.00
2023-03-13T23:00:28.618Z,0.00
2023-03-13T23:05:29.852Z,0.00
2023-03-13T23:10:31.009Z,0.00
2023-03-13T23:15:43.044Z,0.00
2023-03-13T23:20:32.056Z,0.00
2023-03-13T23:25:34.178Z,0.00
2023-03-13T23:30:33.402Z,0.00
2023-03-13T23:35:34.622Z,0.00
2023-03-13T23:40:36.836Z,0.00
2023-03-13T23:45:35.994Z,0.00
2023-03-13T23:50:37.185Z,0.00
2023-03-13T23:55:38.412Z,0.00
